sensor_id;sensor_type;location;lat;lon;timestamp;pressure;altitude;pressure_sealevel;temperature;humidity
49377;BME280;35253;34.688;33.040;2023-07-22T00:00:30;100255.44;;;30.65;100.00
49377;BME280;35253;34.688;33.040;2023-07-22T00:02:56;100264.75;;;30.64;100.00
49377;BME280;35253;34.688;33.040;2023-07-22T00:05:22;100258.88;;;30.60;100.00
49377;BME280;35253;34.688;33.040;2023-07-22T00:07:52;100256.97;;;30.61;100.00
49377;BME280;35253;34.688;33.040;2023-07-22T00:10:18;100252.91;;;30.63;100.00
49377;BME280;35253;34.688;33.040;2023-07-22T00:12:44;100250.75;;;30.65;100.00
49377;BME280;35253;34.688;33.040;2023-07-22T00:15:09;100248.22;;;30.64;100.00
49377;BME280;35253;34.688;33.040;2023-07-22T00:17:38;100245.91;;;30.49;100.00
49377;BME280;35253;34.688;33.040;2023-07-22T00:20:05;100247.06;;;29.98;100.00
49377;BME280;35253;34.688;33.040;2023-07-22T00:22:34;100246.31;;;29.91;100.00
49377;BME280;35253;34.688;33.040;2023-07-22T00:25:01;100245.25;;;29.92;100.00
49377;BME280;35253;34.688;33.040;2023-07-22T00:27:27;100251.81;;;29.85;100.00
49377;BME280;35253;34.688;33.040;2023-07-22T00:29:52;100252.53;;;29.55;100.00
49377;BME280;35253;34.688;33.040;2023-07-22T00:32:18;100261.44;;;29.51;100.00
49377;BME280;35253;34.688;33.040;2023-07-22T00:34:44;100261.50;;;29.69;100.00
49377;BME280;35253;34.688;33.040;2023-07-22T00:37:09;100253.13;;;29.82;100.00
49377;BME280;35253;34.688;33.040;2023-07-22T00:39:35;100257.22;;;29.73;100.00
49377;BME280;35253;34.688;33.040;2023-07-22T00:42:01;100255.19;;;29.62;100.00
49377;BME280;35253;34.688;33.040;2023-07-22T00:44:27;100255.00;;;29.64;100.00
49377;BME280;35253;34.688;33.040;2023-07-22T00:46:57;100247.59;;;29.64;100.00
49377;BME280;35253;34.688;33.040;2023-07-22T00:49:24;100250.13;;;29.66;100.00
49377;BME280;35253;34.688;33.040;2023-07-22T00:51:51;100261.66;;;29.49;100.00
49377;BME280;35253;34.688;33.040;2023-07-22T00:54:17;100253.03;;;29.46;100.00
49377;BME280;35253;34.688;33.040;2023-07-22T00:56:43;100258.81;;;29.38;100.00
49377;BME280;35253;34.688;33.040;2023-07-22T00:59:10;100254.88;;;29.21;100.00
49377;BME280;35253;34.688;33.040;2023-07-22T01:01:35;100267.06;;;29.31;100.00
49377;BME280;35253;34.688;33.040;2023-07-22T01:04:01;100258.28;;;29.16;100.00
49377;BME280;35253;34.688;33.040;2023-07-22T01:06:28;100253.91;;;29.08;100.00
49377;BME280;35253;34.688;33.040;2023-07-22T01:08:57;100263.56;;;29.18;100.00
49377;BME280;35253;34.688;33.040;2023-07-22T01:11:23;100276.97;;;29.39;100.00
49377;BME280;35253;34.688;33.040;2023-07-22T01:13:49;100255.34;;;29.18;100.00
49377;BME280;35253;34.688;33.040;2023-07-22T01:16:15;100265.69;;;29.16;100.00
49377;BME280;35253;34.688;33.040;2023-07-22T01:18:42;100266.66;;;29.34;100.00
49377;BME280;35253;34.688;33.040;2023-07-22T01:21:08;100266.75;;;29.46;100.00
49377;BME280;35253;34.688;33.040;2023-07-22T01:23:36;100271.91;;;29.36;100.00
49377;BME280;35253;34.688;33.040;2023-07-22T01:26:02;100265.59;;;29.35;100.00
49377;BME280;35253;34.688;33.040;2023-07-22T01:28:28;100267.31;;;29.30;100.00
49377;BME280;35253;34.688;33.040;2023-07-22T01:30:54;100266.13;;;29.13;100.00
49377;BME280;35253;34.688;33.040;2023-07-22T01:33:20;100273.25;;;29.20;100.00
49377;BME280;35253;34.688;33.040;2023-07-22T01:35:46;100272.03;;;29.16;100.00
49377;BME280;35253;34.688;33.040;2023-07-22T01:38:11;100271.38;;;29.14;100.00
49377;BME280;35253;34.688;33.040;2023-07-22T01:40:37;100278.81;;;29.14;100.00
49377;BME280;35253;34.688;33.040;2023-07-22T01:43:03;100278.72;;;29.27;100.00
49377;BME280;35253;34.688;33.040;2023-07-22T01:45:29;100277.84;;;29.33;100.00
49377;BME280;35253;34.688;33.040;2023-07-22T01:47:54;100267.03;;;29.38;100.00
49377;BME280;35253;34.688;33.040;2023-07-22T01:50:20;100274.97;;;29.15;100.00
49377;BME280;35253;34.688;33.040;2023-07-22T01:52:46;100280.25;;;29.16;100.00
49377;BME280;35253;34.688;33.040;2023-07-22T01:55:12;100276.56;;;29.35;100.00
49377;BME280;35253;34.688;33.040;2023-07-22T01:57:38;100273.94;;;29.47;100.00
49377;BME280;35253;34.688;33.040;2023-07-22T02:00:06;100277.28;;;29.49;100.00
49377;BME280;35253;34.688;33.040;2023-07-22T02:02:32;100277.28;;;29.49;100.00
49377;BME280;35253;34.688;33.040;2023-07-22T02:04:58;100274.78;;;29.47;100.00
49377;BME280;35253;34.688;33.040;2023-07-22T02:07:23;100280.22;;;29.54;100.00
49377;BME280;35253;34.688;33.040;2023-07-22T02:09:51;100280.31;;;29.41;100.00
49377;BME280;35253;34.688;33.040;2023-07-22T02:12:17;100282.94;;;29.23;100.00
49377;BME280;35253;34.688;33.040;2023-07-22T02:14:43;100274.50;;;29.24;100.00
49377;BME280;35253;34.688;33.040;2023-07-22T02:17:09;100271.81;;;29.18;100.00
49377;BME280;35253;34.688;33.040;2023-07-22T02:19:36;100285.03;;;29.34;100.00
49377;BME280;35253;34.688;33.040;2023-07-22T02:22:05;100281.28;;;29.22;100.00
49377;BME280;35253;34.688;33.040;2023-07-22T02:24:31;100285.03;;;29.34;100.00
49377;BME280;35253;34.688;33.040;2023-07-22T02:26:57;100283.97;;;29.28;100.00
49377;BME280;35253;34.688;33.040;2023-07-22T02:29:23;100278.84;;;29.07;100.00
49377;BME280;35253;34.688;33.040;2023-07-22T02:31:49;100289.53;;;29.15;100.00
49377;BME280;35253;34.688;33.040;2023-07-22T02:34:15;100287.38;;;29.24;100.00
49377;BME280;35253;34.688;33.040;2023-07-22T02:36:42;100281.81;;;29.37;100.00
49377;BME280;35253;34.688;33.040;2023-07-22T02:39:07;100287.97;;;29.32;100.00
49377;BME280;35253;34.688;33.040;2023-07-22T02:41:36;100284.53;;;29.43;100.00
49377;BME280;35253;34.688;33.040;2023-07-22T02:44:02;100287.50;;;29.42;100.00
49377;BME280;35253;34.688;33.040;2023-07-22T02:46:29;100287.88;;;29.45;100.00
49377;BME280;35253;34.688;33.040;2023-07-22T02:48:54;100283.69;;;29.43;100.00
49377;BME280;35253;34.688;33.040;2023-07-22T02:51:20;100294.44;;;29.44;100.00
49377;BME280;35253;34.688;33.040;2023-07-22T02:53:46;100296.53;;;29.49;100.00
49377;BME280;35253;34.688;33.040;2023-07-22T02:56:12;100294.22;;;29.46;100.00
49377;BME280;35253;34.688;33.040;2023-07-22T02:58:38;100297.59;;;29.48;100.00
49377;BME280;35253;34.688;33.040;2023-07-22T03:01:05;100300.06;;;29.56;100.00
49377;BME280;35253;34.688;33.040;2023-07-22T03:03:34;100299.34;;;29.04;99.54
49377;BME280;35253;34.688;33.040;2023-07-22T03:06:00;100303.16;;;28.97;99.11
49377;BME280;35253;34.688;33.040;2023-07-22T03:08:27;100317.78;;;28.84;96.67
49377;BME280;35253;34.688;33.040;2023-07-22T03:10:52;100320.47;;;29.04;96.27
49377;BME280;35253;34.688;33.040;2023-07-22T03:13:18;100322.25;;;29.30;94.29
49377;BME280;35253;34.688;33.040;2023-07-22T03:15:44;100316.50;;;29.31;94.29
49377;BME280;35253;34.688;33.040;2023-07-22T03:18:10;100321.56;;;29.34;93.31
49377;BME280;35253;34.688;33.040;2023-07-22T03:20:37;100327.59;;;29.49;94.32
49377;BME280;35253;34.688;33.040;2023-07-22T03:23:04;100335.56;;;29.58;94.28
49377;BME280;35253;34.688;33.040;2023-07-22T03:25:31;100324.97;;;29.61;93.57
49377;BME280;35253;34.688;33.040;2023-07-22T03:28:02;100329.56;;;29.67;94.04
49377;BME280;35253;34.688;33.040;2023-07-22T03:30:28;100332.94;;;29.69;92.94
49377;BME280;35253;34.688;33.040;2023-07-22T03:32:54;100333.72;;;29.76;93.68
49377;BME280;35253;34.688;33.040;2023-07-22T03:35:20;100330.09;;;29.82;92.99
49377;BME280;35253;34.688;33.040;2023-07-22T03:37:45;100345.03;;;29.93;94.16
49377;BME280;35253;34.688;33.040;2023-07-22T03:40:11;100346.50;;;29.95;93.77
49377;BME280;35253;34.688;33.040;2023-07-22T03:42:43;100340.25;;;30.07;93.99
49377;BME280;35253;34.688;33.040;2023-07-22T03:45:08;100344.41;;;30.16;94.64
49377;BME280;35253;34.688;33.040;2023-07-22T03:47:38;100353.19;;;30.24;96.38
49377;BME280;35253;34.688;33.040;2023-07-22T03:50:05;100346.81;;;30.30;97.25
49377;BME280;35253;34.688;33.040;2023-07-22T03:52:31;100344.59;;;30.39;97.98
49377;BME280;35253;34.688;33.040;2023-07-22T03:54:57;100352.56;;;30.47;98.97
49377;BME280;35253;34.688;33.040;2023-07-22T03:57:26;100352.91;;;30.57;100.00
49377;BME280;35253;34.688;33.040;2023-07-22T03:59:53;100357.25;;;30.65;100.00
49377;BME280;35253;34.688;33.040;2023-07-22T04:02:18;100363.28;;;30.73;100.00
49377;BME280;35253;34.688;33.040;2023-07-22T04:04:44;100366.19;;;30.78;100.00
49377;BME280;35253;34.688;33.040;2023-07-22T04:07:09;100366.94;;;30.85;100.00
49377;BME280;35253;34.688;33.040;2023-07-22T04:09:35;100364.34;;;30.91;100.00
49377;BME280;35253;34.688;33.040;2023-07-22T04:12:01;100366.38;;;31.02;100.00
49377;BME280;35253;34.688;33.040;2023-07-22T04:14:26;100371.56;;;31.10;100.00
49377;BME280;35253;34.688;33.040;2023-07-22T04:16:52;100365.72;;;31.18;100.00
49377;BME280;35253;34.688;33.040;2023-07-22T04:19:18;100375.81;;;31.24;100.00
49377;BME280;35253;34.688;33.040;2023-07-22T04:21:43;100377.47;;;31.25;100.00
49377;BME280;35253;34.688;33.040;2023-07-22T04:24:09;100384.72;;;31.38;100.00
49377;BME280;35253;34.688;33.040;2023-07-22T04:26:35;100388.63;;;31.48;100.00
49377;BME280;35253;34.688;33.040;2023-07-22T04:29:01;100388.31;;;31.56;100.00
49377;BME280;35253;34.688;33.040;2023-07-22T04:31:27;100387.97;;;31.64;100.00
49377;BME280;35253;34.688;33.040;2023-07-22T04:33:53;100389.66;;;31.65;100.00
49377;BME280;35253;34.688;33.040;2023-07-22T04:36:18;100384.44;;;31.75;100.00
49377;BME280;35253;34.688;33.040;2023-07-22T04:38:44;100397.03;;;31.83;100.00
49377;BME280;35253;34.688;33.040;2023-07-22T04:41:09;100392.72;;;31.87;100.00
49377;BME280;35253;34.688;33.040;2023-07-22T04:43:35;100395.72;;;31.86;100.00
49377;BME280;35253;34.688;33.040;2023-07-22T04:46:01;100392.13;;;31.97;100.00
49377;BME280;35253;34.688;33.040;2023-07-22T04:48:26;100387.09;;;32.05;100.00
49377;BME280;35253;34.688;33.040;2023-07-22T04:50:52;100401.13;;;31.92;100.00
49377;BME280;35253;34.688;33.040;2023-07-22T04:53:18;100397.78;;;32.02;100.00
49377;BME280;35253;34.688;33.040;2023-07-22T04:55:44;100402.75;;;32.11;100.00
49377;BME280;35253;34.688;33.040;2023-07-22T04:58:10;100402.84;;;32.16;100.00
49377;BME280;35253;34.688;33.040;2023-07-22T05:00:36;100399.22;;;32.04;100.00
49377;BME280;35253;34.688;33.040;2023-07-22T05:03:03;100408.94;;;32.07;100.00
49377;BME280;35253;34.688;33.040;2023-07-22T05:05:29;100406.81;;;32.09;100.00
49377;BME280;35253;34.688;33.040;2023-07-22T05:07:55;100408.69;;;31.97;100.00
49377;BME280;35253;34.688;33.040;2023-07-22T05:10:21;100408.94;;;32.07;100.00
49377;BME280;35253;34.688;33.040;2023-07-22T05:12:46;100407.56;;;32.16;100.00
49377;BME280;35253;34.688;33.040;2023-07-22T05:15:13;100413.06;;;32.16;100.00
49377;BME280;35253;34.688;33.040;2023-07-22T05:17:39;100405.88;;;32.15;100.00
49377;BME280;35253;34.688;33.040;2023-07-22T05:20:06;100408.84;;;32.13;100.00
49377;BME280;35253;34.688;33.040;2023-07-22T05:22:35;100401.66;;;32.12;100.00
49377;BME280;35253;34.688;33.040;2023-07-22T05:25:01;100396.97;;;32.13;100.00
49377;BME280;35253;34.688;33.040;2023-07-22T05:27:26;100405.38;;;32.18;100.00
49377;BME280;35253;34.688;33.040;2023-07-22T05:29:52;100408.41;;;32.28;100.00
49377;BME280;35253;34.688;33.040;2023-07-22T05:32:17;100408.97;;;32.30;100.00
49377;BME280;35253;34.688;33.040;2023-07-22T05:34:43;100408.28;;;32.46;100.00
49377;BME280;35253;34.688;33.040;2023-07-22T05:37:09;100408.16;;;32.53;100.00
49377;BME280;35253;34.688;33.040;2023-07-22T05:39:34;100414.03;;;32.56;100.00
49377;BME280;35253;34.688;33.040;2023-07-22T05:42:00;100413.78;;;32.58;100.00
49377;BME280;35253;34.688;33.040;2023-07-22T05:44:26;100402.41;;;32.66;100.00
49377;BME280;35253;34.688;33.040;2023-07-22T05:46:51;100415.50;;;32.71;100.00
49377;BME280;35253;34.688;33.040;2023-07-22T05:49:17;100412.00;;;32.75;100.00
49377;BME280;35253;34.688;33.040;2023-07-22T05:51:42;100406.94;;;32.84;100.00
49377;BME280;35253;34.688;33.040;2023-07-22T05:54:08;100413.44;;;32.89;100.00
49377;BME280;35253;34.688;33.040;2023-07-22T05:56:34;100407.41;;;32.92;100.00
49377;BME280;35253;34.688;33.040;2023-07-22T05:58:59;100411.03;;;32.93;100.00
49377;BME280;35253;34.688;33.040;2023-07-22T06:01:25;100405.16;;;32.89;100.00
49377;BME280;35253;34.688;33.040;2023-07-22T06:03:51;100414.00;;;33.03;100.00
49377;BME280;35253;34.688;33.040;2023-07-22T06:06:17;100415.69;;;33.04;100.00
49377;BME280;35253;34.688;33.040;2023-07-22T06:08:42;100409.59;;;32.90;100.00
49377;BME280;35253;34.688;33.040;2023-07-22T06:11:08;100408.75;;;32.90;100.00
49377;BME280;35253;34.688;33.040;2023-07-22T06:13:34;100415.19;;;33.07;100.00
49377;BME280;35253;34.688;33.040;2023-07-22T06:15:59;100416.50;;;33.04;100.00
49377;BME280;35253;34.688;33.040;2023-07-22T06:18:25;100414.19;;;33.13;100.00
49377;BME280;35253;34.688;33.040;2023-07-22T06:20:51;100414.13;;;33.20;100.00
49377;BME280;35253;34.688;33.040;2023-07-22T06:23:17;100409.97;;;33.34;100.00
49377;BME280;35253;34.688;33.040;2023-07-22T06:25:42;100412.84;;;33.39;100.00
49377;BME280;35253;34.688;33.040;2023-07-22T06:28:08;100413.03;;;33.49;100.00
49377;BME280;35253;34.688;33.040;2023-07-22T06:30:34;100419.50;;;33.55;100.00
49377;BME280;35253;34.688;33.040;2023-07-22T06:33:00;100419.41;;;33.49;100.00
49377;BME280;35253;34.688;33.040;2023-07-22T06:35:25;100409.81;;;33.40;100.00
49377;BME280;35253;34.688;33.040;2023-07-22T06:37:51;100421.44;;;33.54;100.00
49377;BME280;35253;34.688;33.040;2023-07-22T06:40:17;100424.94;;;33.49;100.00
49377;BME280;35253;34.688;33.040;2023-07-22T06:42:43;100421.75;;;33.58;100.00
49377;BME280;35253;34.688;33.040;2023-07-22T06:45:09;100428.31;;;33.51;100.00
49377;BME280;35253;34.688;33.040;2023-07-22T06:47:35;100431.38;;;33.67;100.00
49377;BME280;35253;34.688;33.040;2023-07-22T06:50:02;100422.47;;;33.65;100.00
49377;BME280;35253;34.688;33.040;2023-07-22T06:52:30;100434.75;;;33.69;100.00
49377;BME280;35253;34.688;33.040;2023-07-22T06:54:56;100425.38;;;33.70;100.00
49377;BME280;35253;34.688;33.040;2023-07-22T06:57:21;100438.38;;;33.86;100.00
49377;BME280;35253;34.688;33.040;2023-07-22T06:59:47;100439.97;;;33.82;100.00
49377;BME280;35253;34.688;33.040;2023-07-22T07:02:13;100442.22;;;33.85;100.00
49377;BME280;35253;34.688;33.040;2023-07-22T07:04:38;100440.16;;;33.92;100.00
49377;BME280;35253;34.688;33.040;2023-07-22T07:07:04;100440.03;;;33.59;100.00
49377;BME280;35253;34.688;33.040;2023-07-22T07:09:30;100439.44;;;33.68;100.00
49377;BME280;35253;34.688;33.040;2023-07-22T07:11:55;100448.59;;;33.85;100.00
49377;BME280;35253;34.688;33.040;2023-07-22T07:14:24;100448.53;;;33.97;100.00
49377;BME280;35253;34.688;33.040;2023-07-22T07:16:50;100442.84;;;33.87;100.00
49377;BME280;35253;34.688;33.040;2023-07-22T07:19:15;100435.28;;;33.82;100.00
49377;BME280;35253;34.688;33.040;2023-07-22T07:21:41;100438.94;;;33.71;100.00
49377;BME280;35253;34.688;33.040;2023-07-22T07:24:07;100442.31;;;33.90;100.00
49377;BME280;35253;34.688;33.040;2023-07-22T07:26:33;100448.16;;;33.77;100.00
49377;BME280;35253;34.688;33.040;2023-07-22T07:28:58;100440.06;;;33.87;100.00
49377;BME280;35253;34.688;33.040;2023-07-22T07:31:24;100446.50;;;33.92;100.00
49377;BME280;35253;34.688;33.040;2023-07-22T07:33:50;100443.19;;;34.07;100.00
49377;BME280;35253;34.688;33.040;2023-07-22T07:36:16;100445.19;;;34.12;100.00
49377;BME280;35253;34.688;33.040;2023-07-22T07:38:43;100443.50;;;34.22;100.00
49377;BME280;35253;34.688;33.040;2023-07-22T07:41:10;100445.97;;;34.24;100.00
49377;BME280;35253;34.688;33.040;2023-07-22T07:43:40;100438.75;;;34.23;100.00
49377;BME280;35253;34.688;33.040;2023-07-22T07:46:26;100440.50;;;34.12;100.00
49377;BME280;35253;34.688;33.040;2023-07-22T07:48:54;100445.66;;;34.20;100.00
49377;BME280;35253;34.688;33.040;2023-07-22T07:51:22;100435.53;;;34.26;100.00
49377;BME280;35253;34.688;33.040;2023-07-22T07:53:49;100432.25;;;34.29;100.00
49377;BME280;35253;34.688;33.040;2023-07-22T07:56:16;100437.84;;;34.34;100.00
49377;BME280;35253;34.688;33.040;2023-07-22T07:58:43;100441.72;;;34.33;100.00
49377;BME280;35253;34.688;33.040;2023-07-22T08:01:09;100441.88;;;34.43;100.00
49377;BME280;35253;34.688;33.040;2023-07-22T08:03:35;100442.03;;;34.36;100.00
49377;BME280;35253;34.688;33.040;2023-07-22T08:06:02;100441.56;;;34.39;100.00
49377;BME280;35253;34.688;33.040;2023-07-22T08:08:28;100435.31;;;34.49;100.00
49377;BME280;35253;34.688;33.040;2023-07-22T08:11:11;100441.34;;;34.63;100.00
49377;BME280;35253;34.688;33.040;2023-07-22T08:13:39;100439.69;;;34.62;100.00
49377;BME280;35253;34.688;33.040;2023-07-22T08:16:06;100444.91;;;34.75;100.00
49377;BME280;35253;34.688;33.040;2023-07-22T08:18:33;100446.56;;;34.76;100.00
49377;BME280;35253;34.688;33.040;2023-07-22T08:21:01;100447.16;;;34.78;100.00
49377;BME280;35253;34.688;33.040;2023-07-22T08:23:28;100441.16;;;34.86;100.00
49377;BME280;35253;34.688;33.040;2023-07-22T08:25:53;100442.53;;;34.83;100.00
49377;BME280;35253;34.688;33.040;2023-07-22T08:28:19;100442.22;;;34.47;100.00
49377;BME280;35253;34.688;33.040;2023-07-22T08:30:45;100449.03;;;33.37;100.00
49377;BME280;35253;34.688;33.040;2023-07-22T08:33:11;100447.31;;;33.76;100.00
49377;BME280;35253;34.688;33.040;2023-07-22T08:35:38;100441.56;;;34.39;100.00
49377;BME280;35253;34.688;33.040;2023-07-22T08:38:04;100447.47;;;34.65;100.00
49377;BME280;35253;34.688;33.040;2023-07-22T08:40:34;100441.50;;;34.90;100.00
49377;BME280;35253;34.688;33.040;2023-07-22T08:43:02;100442.56;;;34.89;100.00
49377;BME280;35253;34.688;33.040;2023-07-22T08:45:30;100435.41;;;35.09;100.00
49377;BME280;35253;34.688;33.040;2023-07-22T08:47:57;100441.50;;;34.90;100.00
49377;BME280;35253;34.688;33.040;2023-07-22T08:50:26;100437.88;;;34.17;100.00
49377;BME280;35253;34.688;33.040;2023-07-22T08:52:54;100437.25;;;34.65;100.00
49377;BME280;35253;34.688;33.040;2023-07-22T08:55:20;100435.00;;;34.46;100.00
49377;BME280;35253;34.688;33.040;2023-07-22T08:57:48;100434.69;;;34.25;100.00
49377;BME280;35253;34.688;33.040;2023-07-22T09:00:16;100435.06;;;34.51;100.00
49377;BME280;35253;34.688;33.040;2023-07-22T09:02:42;100434.31;;;34.72;100.00
49377;BME280;35253;34.688;33.040;2023-07-22T09:05:08;100435.66;;;34.69;100.00
49377;BME280;35253;34.688;33.040;2023-07-22T09:07:37;100429.28;;;34.69;100.00
49377;BME280;35253;34.688;33.040;2023-07-22T09:10:05;100437.09;;;33.77;100.00
49377;BME280;35253;34.688;33.040;2023-07-22T09:12:33;100434.97;;;33.95;100.00
49377;BME280;35253;34.688;33.040;2023-07-22T09:15:11;100429.84;;;34.54;100.00
49377;BME280;35253;34.688;33.040;2023-07-22T09:17:39;100433.81;;;34.75;100.00
49377;BME280;35253;34.688;33.040;2023-07-22T09:20:05;100435.25;;;34.99;100.00
49377;BME280;35253;34.688;33.040;2023-07-22T09:22:34;100432.84;;;35.24;100.00
49377;BME280;35253;34.688;33.040;2023-07-22T09:25:13;100429.00;;;34.54;100.00
49377;BME280;35253;34.688;33.040;2023-07-22T09:27:42;100426.09;;;34.99;100.00
49377;BME280;35253;34.688;33.040;2023-07-22T09:32:59;100424.41;;;35.36;100.00
49377;BME280;35253;34.688;33.040;2023-07-22T09:35:31;100428.25;;;35.35;100.00
49377;BME280;35253;34.688;33.040;2023-07-22T09:37:58;100420.50;;;35.37;100.00
49377;BME280;35253;34.688;33.040;2023-07-22T09:40:26;100423.91;;;33.95;100.00
49377;BME280;35253;34.688;33.040;2023-07-22T09:42:54;100422.94;;;34.18;100.00
49377;BME280;35253;34.688;33.040;2023-07-22T09:45:25;100423.34;;;33.53;100.00
49377;BME280;35253;34.688;33.040;2023-07-22T09:47:52;100415.72;;;34.34;100.00
49377;BME280;35253;34.688;33.040;2023-07-22T09:50:25;100408.66;;;33.65;100.00
49377;BME280;35253;34.688;33.040;2023-07-22T09:52:53;100411.94;;;33.50;100.00
49377;BME280;35253;34.688;33.040;2023-07-22T09:55:20;100410.16;;;34.01;100.00
49377;BME280;35253;34.688;33.040;2023-07-22T09:57:50;100415.97;;;34.66;100.00
49377;BME280;35253;34.688;33.040;2023-07-22T10:00:17;100418.91;;;35.19;100.00
49377;BME280;35253;34.688;33.040;2023-07-22T10:02:47;100417.38;;;34.52;100.00
49377;BME280;35253;34.688;33.040;2023-07-22T10:05:16;100404.97;;;34.21;100.00
49377;BME280;35253;34.688;33.040;2023-07-22T10:07:47;100406.03;;;34.70;100.00
49377;BME280;35253;34.688;33.040;2023-07-22T10:10:15;100402.72;;;35.33;100.00
49377;BME280;35253;34.688;33.040;2023-07-22T10:12:42;100403.50;;;35.77;100.00
49377;BME280;35253;34.688;33.040;2023-07-22T10:15:14;100403.03;;;35.58;100.00
49377;BME280;35253;34.688;33.040;2023-07-22T10:17:41;100415.88;;;34.44;100.00
49377;BME280;35253;34.688;33.040;2023-07-22T10:20:08;100418.63;;;35.43;100.00
49377;BME280;35253;34.688;33.040;2023-07-22T10:22:37;100402.91;;;36.02;100.00
49377;BME280;35253;34.688;33.040;2023-07-22T10:25:06;100402.88;;;36.29;100.00
49377;BME280;35253;34.688;33.040;2023-07-22T10:27:34;100401.19;;;36.28;100.00
49377;BME280;35253;34.688;33.040;2023-07-22T10:30:00;100405.94;;;36.64;100.00
49377;BME280;35253;34.688;33.040;2023-07-22T10:32:37;100404.81;;;36.65;100.00
49377;BME280;35253;34.688;33.040;2023-07-22T10:35:04;100404.38;;;36.88;100.00
49377;BME280;35253;34.688;33.040;2023-07-22T10:37:33;100399.06;;;35.28;100.00
49377;BME280;35253;34.688;33.040;2023-07-22T10:40:00;100414.69;;;35.87;100.00
49377;BME280;35253;34.688;33.040;2023-07-22T10:42:26;100418.88;;;36.53;100.00
49377;BME280;35253;34.688;33.040;2023-07-22T10:44:52;100412.69;;;36.83;100.00
49377;BME280;35253;34.688;33.040;2023-07-22T10:47:34;100409.66;;;36.48;100.00
49377;BME280;35253;34.688;33.040;2023-07-22T10:50:07;100395.44;;;35.49;100.00
49377;BME280;35253;34.688;33.040;2023-07-22T10:52:45;100389.50;;;36.26;100.00
49377;BME280;35253;34.688;33.040;2023-07-22T10:55:16;100397.75;;;36.94;100.00
49377;BME280;35253;34.688;33.040;2023-07-22T10:57:54;100396.00;;;37.40;100.00
49377;BME280;35253;34.688;33.040;2023-07-22T11:00:21;100390.72;;;37.44;100.00
49377;BME280;35253;34.688;33.040;2023-07-22T11:03:12;100389.13;;;37.63;100.00
49377;BME280;35253;34.688;33.040;2023-07-22T11:05:52;100382.53;;;38.00;100.00
49377;BME280;35253;34.688;33.040;2023-07-22T11:08:40;100392.53;;;38.06;100.00
49377;BME280;35253;34.688;33.040;2023-07-22T11:11:06;100379.72;;;38.15;100.00
49377;BME280;35253;34.688;33.040;2023-07-22T11:13:37;100381.94;;;38.23;100.00
49377;BME280;35253;34.688;33.040;2023-07-22T11:16:04;100379.41;;;38.42;100.00
49377;BME280;35253;34.688;33.040;2023-07-22T11:18:40;100378.88;;;38.24;100.00
49377;BME280;35253;34.688;33.040;2023-07-22T11:21:12;100379.16;;;38.23;100.00
49377;BME280;35253;34.688;33.040;2023-07-22T11:23:38;100377.47;;;38.37;100.00
49377;BME280;35253;34.688;33.040;2023-07-22T11:26:04;100380.81;;;38.49;100.00
49377;BME280;35253;34.688;33.040;2023-07-22T11:28:31;100376.91;;;37.89;100.00
49377;BME280;35253;34.688;33.040;2023-07-22T11:30:57;100374.69;;;38.27;100.00
49377;BME280;35253;34.688;33.040;2023-07-22T11:33:24;100373.56;;;38.28;100.00
49377;BME280;35253;34.688;33.040;2023-07-22T11:35:50;100376.09;;;38.24;100.00
49377;BME280;35253;34.688;33.040;2023-07-22T11:38:16;100372.13;;;35.01;100.00
49377;BME280;35253;34.688;33.040;2023-07-22T11:40:41;100366.50;;;35.98;100.00
49377;BME280;35253;34.688;33.040;2023-07-22T11:43:07;100359.69;;;36.11;100.00
49377;BME280;35253;34.688;33.040;2023-07-22T11:45:33;100369.38;;;36.92;100.00
49377;BME280;35253;34.688;33.040;2023-07-22T11:47:58;100368.66;;;37.07;100.00
49377;BME280;35253;34.688;33.040;2023-07-22T11:50:33;100367.34;;;37.40;100.00
49377;BME280;35253;34.688;33.040;2023-07-22T11:52:59;100368.25;;;37.71;100.00
49377;BME280;35253;34.688;33.040;2023-07-22T11:55:25;100374.13;;;37.69;100.00
49377;BME280;35253;34.688;33.040;2023-07-22T11:57:54;100359.06;;;35.18;100.00
49377;BME280;35253;34.688;33.040;2023-07-22T12:00:20;100343.06;;;35.79;100.00
49377;BME280;35253;34.688;33.040;2023-07-22T12:02:46;100358.16;;;36.67;100.00
49377;BME280;35253;34.688;33.040;2023-07-22T12:05:20;100349.53;;;37.36;100.00
49377;BME280;35253;34.688;33.040;2023-07-22T12:07:45;100360.19;;;37.74;100.00
49377;BME280;35253;34.688;33.040;2023-07-22T12:10:11;100352.44;;;38.07;100.00
49377;BME280;35253;34.688;33.040;2023-07-22T12:12:40;100353.50;;;37.65;100.00
49377;BME280;35253;34.688;33.040;2023-07-22T12:15:21;100356.00;;;36.79;100.00
49377;BME280;35253;34.688;33.040;2023-07-22T12:17:48;100357.41;;;37.54;100.00
49377;BME280;35253;34.688;33.040;2023-07-22T12:20:16;100345.19;;;37.90;100.00
49377;BME280;35253;34.688;33.040;2023-07-22T12:22:42;100351.34;;;36.48;100.00
49377;BME280;35253;34.688;33.040;2023-07-22T12:25:08;100340.66;;;37.34;100.00
49377;BME280;35253;34.688;33.040;2023-07-22T12:27:34;100345.75;;;36.90;100.00
49377;BME280;35253;34.688;33.040;2023-07-22T12:30:00;100337.94;;;37.59;100.00
49377;BME280;35253;34.688;33.040;2023-07-22T12:32:25;100347.09;;;36.82;100.00